Colmeia, Brazil
Current Conditions -  °F | °C
As of 8:00 PM on Wednesday 26 Nov 2014 (Local Time) from SBPJ Reporting Station
Thunderstorm Thunderstorm  
Wind Chill: 79°   Ceiling: 1500
Heat Index: 82°   Visibility: 6mi
Dew Point: 73°   Wind: 3mph
Humidity: 83%   Direction: 250°WSW
Pressure: NA   Gusts: NA
Location:  8.73°S, 48.76°W
Report Text: SBPJ 262300Z 25003KT 9999 VCTS SCT006 BKN015 FEW045CB 26/23 Q1010
Loading
Personal Weather Stations






























Interactive Weather Map New forecast layout! Learn more

10-Day Weather Forecast

Advertisements
Track Severe Weather on mobile